Aérodrome :
LOGIN :

S'inscrire | Disclaimer

   EN    FR    IT 

 










Légende :    VFR   VFR Marginal   IFR   IFR Intensif   IFR Très Intensif
Visi : 
Plafond : 
>= 8 km
>= 3000ft
5 à 8 km
1000 à 3000 ft
1500m à 5 km
500 à 1000 ft
800 à 1500m
200 à 500 ft
< 800m
< 200 ft
Symboles :   Orages  Brouillard  Fortes neiges  Fortes précipitations  Vent > 20 kt
SIGMETs :   Divers  Orages  Givrage  Turbulence  Onde Orograph.  Cendres Volcan.







- Altitude de l'aérodrome : 65 ft
- Code IATA : PMO


LICJ - Palermo Punta Raisi

DERNIER METAR :
  • 301220Z 35008KT 9999 FEW028 18/12 Q1014

METARs EXPIRÉS :
  • 301150Z 35007KT 9999 FEW028 18/12 Q1014
  • 301120Z 34007KT 9999 FEW028 17/11 Q1015
  • 301050Z 32006KT 290V350 9999 FEW028 18/11 Q1015
  • 301020Z 33005KT 9999 FEW028 17/11 Q1015
  • 300950Z 33006KT 310V010 9999 FEW028 17/11 Q1015

TAF TAF LICJ
Valide du 30 à 12h jusqu'au 01 à 12h UTC


301100Z 3012/0112 35012KT CAVOK
BECMG 3017/3019 VRB05KT
BECMG 0108/0110 04012KT
Pas de NOTAMs connus pour ce terrain.



MET'MAP, la Météo Aéronautique d'un coup d'oeil ! - Copyright ORBIFLY Décembre 2007 - Disclaimer

ORBIFLY MET'MAP TEAM :

Programmation & Développement : Alexandra Zaïnal
Conception & Développement : Baudouin d'Aumeries
Co-Programmation & Développement : Marc-Olivier Méhu
Soutien technique & logistique : Manuel Goepfert

Contact : metmap@orbifly.com




SOURCES & CREDITS :

   NOAA